Time;durP1;ratioP1;P1;durP2;ratioP2;P2;SDS_P1;SDS_P2;PMS_P1;PMS_P2;Temp;Humidity;BMP_temperature;BMP_pressure;BME280_temperature;BME280_humidity;BME280_pressure;Samples;Min_cycle;Max_cycle;Signal;HPM_P1;HPM_P2
2021/10/29 00:03:09;;;;;;;;;;;19.20;40.80;;;;;;8233713;28;19921;-49
2021/10/29 00:07:10;;;;;;;;;;;19.20;40.70;;;;;;8233875;28;19917;-52
2021/10/29 00:11:10;;;;;;;;;;;19.20;40.80;;;;;;8233901;28;20001;-50
2021/10/29 00:15:11;;;;;;;;;;;19.20;40.80;;;;;;8233681;28;20004;-50
2021/10/29 00:19:11;;;;;;;;;;;19.20;40.80;;;;;;8233810;28;19989;-51
2021/10/29 00:23:12;;;;;;;;;;;19.10;40.70;;;;;;8233182;28;19921;-50
2021/10/29 00:27:12;;;;;;;;;;;19.20;40.70;;;;;;8233487;28;19982;-54
2021/10/29 00:31:13;;;;;;;;;;;19.10;40.70;;;;;;8233948;28;20393;-52
2021/10/29 00:35:13;;;;;;;;;;;19.10;40.70;;;;;;8233373;28;19914;-51
2021/10/29 00:39:15;;;;;;;;;;;19.10;40.70;;;;;;8233678;28;19921;-51
2021/10/29 00:43:15;;;;;;;;;;;19.10;40.70;;;;;;8233653;28;20303;-50
2021/10/29 00:47:16;;;;;;;;;;;19.10;40.70;;;;;;8232708;28;19954;-50
2021/10/29 00:51:17;;;;;;;;;;;19.10;40.70;;;;;;8233967;28;20355;-51
2021/10/29 00:55:18;;;;;;;;;;;19.10;40.70;;;;;;8233262;28;19925;-50
2021/10/29 00:59:18;;;;;;;;;;;19.10;40.70;;;;;;8232645;28;20394;-52
2021/10/29 01:03:19;;;;;;;;;;;19.10;40.70;;;;;;8234809;28;19914;-50
2021/10/29 01:07:20;;;;;;;;;;;19.10;40.70;;;;;;8239234;28;19914;-52
2021/10/29 01:11:21;;;;;;;;;;;19.10;40.70;;;;;;8239127;28;19957;-53
2021/10/29 01:15:22;;;;;;;;;;;19.10;40.70;;;;;;8239329;28;19914;-52
2021/10/29 01:19:28;;;;;;;;;;;19.10;40.70;;;;;;8238776;28;19922;-51
2021/10/29 01:23:29;;;;;;;;;;;19.10;40.70;;;;;;8238535;28;19921;-50
2021/10/29 01:27:29;;;;;;;;;;;19.10;40.70;;;;;;8238955;28;19941;-53
2021/10/29 01:31:30;;;;;;;;;;;19.10;40.70;;;;;;8238891;28;19918;-52
2021/10/29 01:35:30;;;;;;;;;;;19.10;40.70;;;;;;8238193;28;19914;-51
2021/10/29 01:39:31;;;;;;;;;;;19.10;40.70;;;;;;8238563;28;19941;-49
2021/10/29 01:43:41;;;;;;;;;;;19.00;40.70;;;;;;8238177;28;19937;-50
2021/10/29 01:47:42;;;;;;;;;;;19.00;40.70;;;;;;8237666;28;20287;-49
2021/10/29 01:51:42;;;;;;;;;;;19.00;40.70;;;;;;8238295;28;19914;-52
2021/10/29 01:55:43;;;;;;;;;;;19.00;40.70;;;;;;8238153;28;19956;-52
2021/10/29 01:59:43;;;;;;;;;;;19.00;40.70;;;;;;8237295;28;20391;-50
2021/10/29 02:03:44;;;;;;;;;;;19.00;40.70;;;;;;8236405;28;19918;-52
2021/10/29 02:07:45;;;;;;;;;;;19.00;40.70;;;;;;8237688;28;19914;-53
2021/10/29 02:11:46;;;;;;;;;;;19.00;40.70;;;;;;8237201;28;19914;-50
2021/10/29 02:15:47;;;;;;;;;;;19.00;40.70;;;;;;8237329;28;19954;-50
2021/10/29 02:19:47;;;;;;;;;;;19.00;40.70;;;;;;8237485;28;19929;-51
2021/10/29 02:23:48;;;;;;;;;;;19.00;40.70;;;;;;8236617;28;19924;-50
2021/10/29 02:27:48;;;;;;;;;;;19.00;40.70;;;;;;8237054;28;19914;-51
2021/10/29 02:31:49;;;;;;;;;;;19.00;41.20;;;;;;8237319;28;19913;-51
2021/10/29 02:35:50;;;;;;;;;;;18.90;40.70;;;;;;8236345;28;19914;-50
2021/10/29 02:39:51;;;;;;;;;;;18.90;40.70;;;;;;8236877;28;20386;-51
2021/10/29 02:43:52;;;;;;;;;;;19.00;41.20;;;;;;8236736;28;19964;-50
2021/10/29 02:47:52;;;;;;;;;;;19.00;40.70;;;;;;8235953;28;20387;-51
2021/10/29 02:51:53;;;;;;;;;;;19.00;40.70;;;;;;8236672;28;19918;-51
2021/10/29 02:55:53;;;;;;;;;;;19.00;40.70;;;;;;8235980;28;19918;-50
2021/10/29 02:59:54;;;;;;;;;;;18.90;40.70;;;;;;8235444;28;20331;-50
2021/10/29 03:03:54;;;;;;;;;;;19.00;40.70;;;;;;8235772;28;19910;-51
2021/10/29 03:07:55;;;;;;;;;;;19.00;40.70;;;;;;8235470;28;19920;-52
2021/10/29 03:11:56;;;;;;;;;;;18.90;40.70;;;;;;8235387;28;19910;-51
2021/10/29 03:15:56;;;;;;;;;;;18.90;40.70;;;;;;8235663;28;19918;-50
2021/10/29 03:19:57;;;;;;;;;;;18.90;40.80;;;;;;8235204;28;20410;-51
2021/10/29 03:23:57;;;;;;;;;;;18.90;40.90;;;;;;8234713;28;19921;-50
2021/10/29 03:27:58;;;;;;;;;;;18.90;40.80;;;;;;8234471;28;19918;-51
2021/10/29 03:31:58;;;;;;;;;;;18.90;40.70;;;;;;8235107;28;19914;-50
2021/10/29 03:35:58;;;;;;;;;;;19.00;40.80;;;;;;8234408;28;20430;-50
2021/10/29 03:40:14;;;;;;;;;;;19.00;40.70;;;;;;8234753;28;19926;-52
2021/10/29 03:52:57;;;;;;;;;;;19.00;40.80;;;;;;8237956;28;20034;-51
2021/10/29 04:00:58;;;;;;;;;;;19.10;40.80;;;;;;8234510;28;19968;-50
2021/10/29 04:04:59;;;;;;;;;;;19.10;40.70;;;;;;8234062;28;19910;-50
2021/10/29 04:09:00;;;;;;;;;;;19.10;40.70;;;;;;8232626;28;19922;-52
2021/10/29 04:13:03;;;;;;;;;;;19.10;40.70;;;;;;8233771;28;19913;-52
2021/10/29 04:17:04;;;;;;;;;;;19.10;40.70;;;;;;8233853;28;19945;-49
2021/10/29 04:21:05;;;;;;;;;;;19.10;40.70;;;;;;8233573;28;19914;-52
2021/10/29 04:25:06;;;;;;;;;;;19.10;40.70;;;;;;8233667;28;19918;-52
2021/10/29 04:29:14;;;;;;;;;;;19.10;41.20;;;;;;8233569;28;20434;-49
2021/10/29 04:33:15;;;;;;;;;;;19.10;40.60;;;;;;8233035;28;19914;-52
2021/10/29 04:37:15;;;;;;;;;;;19.10;40.60;;;;;;8232894;28;20307;-49
2021/10/29 04:41:16;;;;;;;;;;;19.10;40.60;;;;;;8232995;28;20436;-52
2021/10/29 04:45:17;;;;;;;;;;;19.10;40.60;;;;;;8233506;28;19972;-50
2021/10/29 04:49:18;;;;;;;;;;;19.10;40.60;;;;;;8233427;28;19925;-51
2021/10/29 04:53:18;;;;;;;;;;;19.10;40.70;;;;;;8232963;28;19962;-52
2021/10/29 04:57:19;;;;;;;;;;;19.00;40.70;;;;;;8233182;28;19925;-52
2021/10/29 05:01:19;;;;;;;;;;;19.00;40.70;;;;;;8233052;28;19914;-49
2021/10/29 05:05:20;;;;;;;;;;;19.00;40.70;;;;;;8232539;28;20398;-52
2021/10/29 05:09:20;;;;;;;;;;;19.00;40.70;;;;;;8232781;28;19914;-51
2021/10/29 05:13:21;;;;;;;;;;;19.00;40.70;;;;;;8233039;28;20275;-50
2021/10/29 05:17:21;;;;;;;;;;;19.00;40.80;;;;;;8232382;28;19965;-51
2021/10/29 05:21:22;;;;;;;;;;;19.00;40.80;;;;;;8232830;28;20380;-49
2021/10/29 05:25:22;;;;;;;;;;;19.10;40.80;;;;;;8232653;28;19942;-49
2021/10/29 05:29:23;;;;;;;;;;;19.10;40.80;;;;;;8232423;28;19914;-52
2021/10/29 05:33:23;;;;;;;;;;;19.10;40.70;;;;;;8232719;28;19922;-52
2021/10/29 05:37:24;;;;;;;;;;;19.10;40.70;;;;;;8232409;28;20326;-50
2021/10/29 05:41:24;;;;;;;;;;;19.20;40.70;;;;;;8232347;28;20289;-50
2021/10/29 05:45:25;;;;;;;;;;;19.20;40.70;;;;;;8232432;28;19914;-50
2021/10/29 05:49:25;;;;;;;;;;;19.20;40.60;;;;;;8234709;28;19918;-52
2021/10/29 05:57:29;;;;;;;;;;;19.20;40.60;;;;;;8237927;28;20009;-50
2021/10/29 06:01:30;;;;;;;;;;;19.20;40.60;;;;;;8237898;28;20368;-49
2021/10/29 06:05:31;;;;;;;;;;;19.10;40.50;;;;;;8237127;28;19922;-50
2021/10/29 06:09:32;;;;;;;;;;;19.10;40.50;;;;;;8237820;28;19914;-50
2021/10/29 06:13:32;;;;;;;;;;;19.10;40.50;;;;;;8237537;28;19910;-51
2021/10/29 06:17:33;;;;;;;;;;;19.10;40.60;;;;;;8236828;28;20296;-51
2021/10/29 06:21:39;;;;;;;;;;;19.10;40.60;;;;;;8237211;28;20364;-52
2021/10/29 06:25:42;;;;;;;;;;;19.10;40.60;;;;;;8240980;28;19918;-49
2021/10/29 06:29:42;;;;;;;;;;;19.10;40.70;;;;;;8236414;28;19949;-50
2021/10/29 06:33:43;;;;;;;;;;;19.00;40.70;;;;;;8237155;28;19956;-52
2021/10/29 06:37:43;;;;;;;;;;;19.00;40.70;;;;;;8237295;28;19929;-50
2021/10/29 06:41:44;;;;;;;;;;;19.00;40.70;;;;;;8236171;28;20024;-49
2021/10/29 07:41:13;;;;;;;;;;;19.20;40.70;;;;;;8237105;28;19964;-50
2021/10/29 07:45:14;;;;;;;;;;;19.10;40.60;;;;;;8234388;28;19910;-50
2021/10/29 07:49:14;;;;;;;;;;;19.10;40.60;;;;;;8234910;28;19977;-50
2021/10/29 07:53:15;;;;;;;;;;;19.10;40.60;;;;;;8234169;28;19918;-48
2021/10/29 07:57:19;;;;;;;;;;;19.10;40.60;;;;;;8234044;28;19926;-49
2021/10/29 08:01:20;;;;;;;;;;;19.10;40.60;;;;;;8234411;28;19942;-50
2021/10/29 08:05:21;;;;;;;;;;;19.10;40.60;;;;;;8233747;28;20395;-49
2021/10/29 08:09:24;;;;;;;;;;;19.10;40.70;;;;;;8234452;28;19910;-53
2021/10/29 08:13:24;;;;;;;;;;;19.10;40.70;;;;;;8234006;28;19914;-49
2021/10/29 08:17:25;;;;;;;;;;;19.00;40.70;;;;;;8233134;28;19965;-52
2021/10/29 08:21:25;;;;;;;;;;;19.10;40.80;;;;;;8233710;28;19918;-49
2021/10/29 08:25:26;;;;;;;;;;;19.10;40.80;;;;;;8233563;28;19914;-50
2021/10/29 08:29:27;;;;;;;;;;;19.10;40.70;;;;;;8233341;28;19969;-52
2021/10/29 08:33:28;;;;;;;;;;;19.10;40.80;;;;;;8233008;28;20052;-50
2021/10/29 08:37:31;;;;;;;;;;;19.20;41.30;;;;;;8233874;28;20311;-52
2021/10/29 08:41:31;;;;;;;;;;;19.20;40.70;;;;;;8233121;28;19921;-51
2021/10/29 08:45:32;;;;;;;;;;;19.20;40.70;;;;;;8233335;28;19914;-50
2021/10/29 08:49:33;;;;;;;;;;;19.30;40.70;;;;;;8233418;28;20379;-49
2021/10/29 08:53:34;;;;;;;;;;;19.30;40.60;;;;;;8233089;28;20009;-50
2021/10/29 08:57:35;;;;;;;;;;;19.30;40.60;;;;;;8232894;28;20380;-52
2021/10/29 09:01:47;;;;;;;;;;;19.30;40.60;;;;;;8233203;28;19910;-49
2021/10/29 09:32:24;;;;;;;;;;;19.10;40.60;;;;;;8238244;28;20097;-52
2021/10/29 09:36:25;;;;;;;;;;;19.10;40.60;;;;;;8238563;28;20252;-50
2021/10/29 09:40:31;;;;;;;;;;;19.10;40.70;;;;;;8238323;28;19930;-52
2021/10/29 09:44:38;;;;;;;;;;;19.10;40.80;;;;;;8238147;28;20267;-50
2021/10/29 09:48:48;;;;;;;;;;;19.20;40.80;;;;;;8237851;28;19921;-50
2021/10/29 09:53:02;;;;;;;;;;;19.10;40.80;;;;;;8237933;28;19918;-50
2021/10/29 09:57:02;;;;;;;;;;;19.20;40.80;;;;;;8237669;28;20006;-50
2021/10/29 10:01:03;;;;;;;;;;;19.20;40.80;;;;;;8237900;28;20258;-50
2021/10/29 10:05:04;;;;;;;;;;;19.30;40.80;;;;;;8237157;28;20275;-53
2021/10/29 10:09:08;;;;;;;;;;;19.30;40.80;;;;;;8236921;28;19929;-53
2021/10/29 10:13:08;;;;;;;;;;;19.30;40.70;;;;;;8237574;28;20256;-52
2021/10/29 10:17:09;;;;;;;;;;;19.30;40.70;;;;;;8237196;28;19949;-51
2021/10/29 10:21:12;;;;;;;;;;;19.30;40.70;;;;;;8237011;28;20422;-51
2021/10/29 10:47:14;;;;;;;;;;;19.20;40.70;;;;;;8238850;28;19914;-48
2021/10/29 10:51:37;;;;;;;;;;;19.20;40.70;;;;;;8236651;28;19914;-53
2021/10/29 10:56:07;;;;;;;;;;;19.20;40.70;;;;;;8236186;28;19922;-51
2021/10/29 11:00:26;;;;;;;;;;;19.20;40.80;;;;;;8235969;28;19926;-51
2021/10/29 11:12:40;;;;;;;;;;;19.20;40.80;;;;;;8236154;28;19914;-50
2021/10/29 11:16:42;;;;;;;;;;;19.20;40.90;;;;;;8235446;28;19969;-50
2021/10/29 11:20:47;;;;;;;;;;;19.20;40.90;;;;;;8235500;28;19925;-53
2021/10/29 11:24:49;;;;;;;;;;;19.20;40.90;;;;;;8237593;28;19959;-51
2021/10/29 11:28:52;;;;;;;;;;;19.30;40.90;;;;;;8235177;28;20323;-52
2021/10/29 11:32:55;;;;;;;;;;;19.30;40.90;;;;;;8234709;28;19920;-50
2021/10/29 11:36:55;;;;;;;;;;;19.30;40.80;;;;;;8234827;28;19914;-50
2021/10/29 11:40:56;;;;;;;;;;;19.40;40.80;;;;;;8234767;28;20000;-53
2021/10/29 11:45:01;;;;;;;;;;;19.40;40.70;;;;;;8234401;28;19914;-52
2021/10/29 11:49:03;;;;;;;;;;;19.40;40.70;;;;;;8234177;28;20253;-51
2021/10/29 11:53:04;;;;;;;;;;;19.40;40.70;;;;;;8232662;28;20371;-54
2021/10/29 12:09:38;;;;;;;;;;;19.50;40.80;;;;;;8232983;28;20363;-46
2021/10/29 12:13:40;;;;;;;;;;;19.60;40.90;;;;;;8242276;28;19914;-56
2021/10/29 12:17:48;;;;;;;;;;;19.60;41.10;;;;;;8232582;28;19926;-54
2021/10/29 12:21:55;;;;;;;;;;;19.70;41.30;;;;;;8227453;28;19956;-53
2021/10/29 12:26:02;;;;;;;;;;;19.80;41.50;;;;;;8230061;28;19914;-51
2021/10/29 12:30:14;;;;;;;;;;;19.90;41.50;;;;;;8231860;28;19928;-48
2021/10/29 13:05:13;;;;;;;;;;;20.30;41.50;;;;;;8234459;28;19937;-50
2021/10/29 13:09:15;;;;;;;;;;;20.20;40.90;;;;;;8239004;28;20009;-48
2021/10/29 13:13:27;;;;;;;;;;;20.10;41.40;;;;;;8238499;28;20001;-50
2021/10/29 13:17:32;;;;;;;;;;;20.20;41.40;;;;;;8213560;28;19926;-49
2021/10/29 13:51:09;;;;;;;;;;;20.50;40.90;;;;;;8238319;28;20041;-50
2021/10/29 14:29:05;;;;;;;;;;;20.70;40.80;;;;;;8240762;28;20359;-47
2021/10/29 14:33:12;;;;;;;;;;;20.70;40.80;;;;;;8236633;28;19989;-50
2021/10/29 14:37:17;;;;;;;;;;;20.80;40.90;;;;;;8241962;28;19964;-49
2021/10/29 14:41:30;;;;;;;;;;;20.80;40.80;;;;;;8204516;28;19925;-50
2021/10/29 14:45:43;;;;;;;;;;;20.80;40.80;;;;;;8231520;28;19921;-52
2021/10/29 14:49:52;;;;;;;;;;;20.80;40.80;;;;;;8236403;28;19921;-52
2021/10/29 15:02:48;;;;;;;;;;;20.90;40.80;;;;;;8237043;28;20016;-49
2021/10/29 15:06:59;;;;;;;;;;;20.90;40.80;;;;;;8235401;28;19918;-49
2021/10/29 15:28:38;;;;;;;;;;;21.00;40.80;;;;;;8240324;28;20418;-49
2021/10/29 15:32:49;;;;;;;;;;;21.00;40.80;;;;;;8233491;28;20572;-47
2021/10/29 15:45:48;;;;;;;;;;;21.10;40.70;;;;;;8295848;28;20067;-53
2021/10/29 15:49:51;;;;;;;;;;;21.10;40.70;;;;;;8267190;28;20356;-50
2021/10/29 15:53:52;;;;;;;;;;;21.10;40.70;;;;;;8234546;28;19917;-49
2021/10/29 15:58:02;;;;;;;;;;;21.10;40.70;;;;;;8234684;28;19929;-49
2021/10/29 16:02:16;;;;;;;;;;;21.10;40.70;;;;;;8234650;28;19914;-50
2021/10/29 16:19:14;;;;;;;;;;;21.20;40.70;;;;;;8237406;28;19933;-49
2021/10/29 16:23:14;;;;;;;;;;;21.20;40.70;;;;;;8231272;28;20017;-52
2021/10/29 16:27:15;;;;;;;;;;;21.20;41.30;;;;;;8226853;28;19922;-53
2021/10/29 16:31:18;;;;;;;;;;;21.10;40.90;;;;;;8238017;28;20335;-49
2021/10/29 16:35:19;;;;;;;;;;;21.10;41.20;;;;;;8230546;28;19949;-48
2021/10/29 16:39:20;;;;;;;;;;;21.10;41.40;;;;;;8232121;28;19976;-49
2021/10/29 16:43:23;;;;;;;;;;;21.10;41.70;;;;;;8233499;28;20331;-46
2021/10/29 16:47:27;;;;;;;;;;;21.10;41.40;;;;;;8232421;28;19929;-47
2021/10/29 16:51:27;;;;;;;;;;;21.00;41.30;;;;;;8233499;28;19918;-49
2021/10/29 16:55:28;;;;;;;;;;;21.10;41.30;;;;;;8233386;28;20367;-48
2021/10/29 16:59:29;;;;;;;;;;;21.00;41.20;;;;;;8232666;28;20375;-47
2021/10/29 17:03:29;;;;;;;;;;;21.00;41.30;;;;;;8233541;28;19910;-47
2021/10/29 17:07:29;;;;;;;;;;;20.90;41.20;;;;;;8233420;28;19914;-51
2021/10/29 17:11:30;;;;;;;;;;;20.90;41.30;;;;;;8232711;28;20268;-48
2021/10/29 17:15:35;;;;;;;;;;;20.90;41.30;;;;;;8233311;28;19914;-50
2021/10/29 17:19:35;;;;;;;;;;;20.80;41.30;;;;;;8232950;28;19925;-46
2021/10/29 17:23:38;;;;;;;;;;;20.80;41.30;;;;;;8232537;28;20423;-48
2021/10/29 17:27:39;;;;;;;;;;;20.70;41.20;;;;;;8233184;28;19992;-49
2021/10/29 17:31:40;;;;;;;;;;;20.70;41.30;;;;;;8232961;28;19914;-49
2021/10/29 17:35:40;;;;;;;;;;;20.70;41.30;;;;;;8232239;28;19964;-52
2021/10/29 17:39:41;;;;;;;;;;;20.70;41.30;;;;;;8232529;28;20386;-49
2021/10/29 17:43:42;;;;;;;;;;;20.60;41.20;;;;;;8232682;28;19918;-51
2021/10/29 17:47:42;;;;;;;;;;;20.60;41.30;;;;;;8238193;28;19910;-51
2021/10/29 17:51:44;;;;;;;;;;;20.50;41.30;;;;;;8238550;28;19920;-49
2021/10/29 17:55:45;;;;;;;;;;;20.50;41.30;;;;;;8238455;28;19918;-48
2021/10/29 17:59:46;;;;;;;;;;;20.50;41.30;;;;;;8237483;28;20322;-49
2021/10/29 18:03:46;;;;;;;;;;;20.40;41.30;;;;;;8237908;28;19910;-48
2021/10/29 18:07:47;;;;;;;;;;;20.40;41.30;;;;;;8237921;28;19997;-49
2021/10/29 18:11:47;;;;;;;;;;;20.40;41.30;;;;;;8237263;28;19950;-50
2021/10/29 18:15:48;;;;;;;;;;;20.40;41.30;;;;;;8237854;28;19918;-48
2021/10/29 18:19:49;;;;;;;;;;;20.30;41.30;;;;;;8237558;28;20387;-49
2021/10/29 18:23:53;;;;;;;;;;;20.30;41.20;;;;;;8237301;28;19988;-49
2021/10/29 18:27:54;;;;;;;;;;;20.30;41.20;;;;;;8237672;28;19910;-47
2021/10/29 18:31:54;;;;;;;;;;;20.30;41.30;;;;;;8236957;28;20422;-48
2021/10/29 18:35:55;;;;;;;;;;;20.20;41.20;;;;;;8236529;28;19946;-48
2021/10/29 18:39:56;;;;;;;;;;;20.20;41.20;;;;;;8237144;28;20012;-48
2021/10/29 18:43:57;;;;;;;;;;;20.20;41.20;;;;;;8236455;28;20279;-48
2021/10/29 18:47:58;;;;;;;;;;;20.20;41.20;;;;;;8236368;28;19914;-48
2021/10/29 18:51:59;;;;;;;;;;;20.10;41.20;;;;;;8236598;28;20363;-48
2021/10/29 18:56:00;;;;;;;;;;;20.10;41.20;;;;;;8235161;28;19945;-48
2021/10/29 19:00:01;;;;;;;;;;;20.10;41.20;;;;;;8235632;28;20403;-50
2021/10/29 19:04:01;;;;;;;;;;;20.10;41.30;;;;;;8236358;28;19917;-49
2021/10/29 19:08:03;;;;;;;;;;;20.00;41.30;;;;;;8234592;28;19917;-50
2021/10/29 19:12:04;;;;;;;;;;;20.00;41.30;;;;;;8235543;28;19914;-49
2021/10/29 19:16:04;;;;;;;;;;;20.00;41.30;;;;;;8235760;28;19993;-48
2021/10/29 19:20:05;;;;;;;;;;;20.00;41.30;;;;;;8235492;28;19922;-49
2021/10/29 19:24:06;;;;;;;;;;;20.00;41.30;;;;;;8234949;28;19917;-49
2021/10/29 19:28:06;;;;;;;;;;;20.00;41.30;;;;;;8235731;28;19914;-50
2021/10/29 19:32:09;;;;;;;;;;;19.90;41.30;;;;;;8235270;28;19914;-48
2021/10/29 19:36:12;;;;;;;;;;;19.90;41.30;;;;;;8233872;28;19914;-49
2021/10/29 19:40:35;;;;;;;;;;;19.90;41.30;;;;;;8235180;28;19936;-49
2021/10/29 19:44:33;;;;;;;;;;;19.90;41.30;;;;;;8234627;28;19921;-49
2021/10/29 19:48:33;;;;;;;;;;;19.90;41.30;;;;;;8234896;28;20375;-48
2021/10/29 19:52:34;;;;;;;;;;;19.90;41.30;;;;;;8234645;28;19964;-52
2021/10/29 19:56:34;;;;;;;;;;;19.80;41.30;;;;;;8234029;28;19914;-48
2021/10/29 20:00:35;;;;;;;;;;;19.80;41.30;;;;;;8234221;28;19976;-48
2021/10/29 20:04:35;;;;;;;;;;;19.80;41.20;;;;;;8234184;28;19922;-49
2021/10/29 20:08:36;;;;;;;;;;;19.80;41.30;;;;;;8233656;28;20279;-53
2021/10/29 20:12:36;;;;;;;;;;;19.80;41.30;;;;;;8234300;28;20016;-49
2021/10/29 20:16:37;;;;;;;;;;;19.80;41.30;;;;;;8234050;28;19914;-48
2021/10/29 20:20:39;;;;;;;;;;;19.70;41.20;;;;;;8233442;28;19922;-47
2021/10/29 20:24:39;;;;;;;;;;;19.70;41.20;;;;;;8234033;28;20009;-48
2021/10/29 20:28:40;;;;;;;;;;;19.70;41.10;;;;;;8233839;28;19914;-50
2021/10/29 20:32:41;;;;;;;;;;;19.70;41.10;;;;;;8233137;28;20001;-49
2021/10/29 20:36:41;;;;;;;;;;;19.70;41.10;;;;;;8233399;28;19914;-48
2021/10/29 20:40:42;;;;;;;;;;;19.70;41.10;;;;;;8233441;28;19922;-49
2021/10/29 20:44:43;;;;;;;;;;;19.60;41.00;;;;;;8233045;28;20355;-50
2021/10/29 20:48:43;;;;;;;;;;;19.60;41.60;;;;;;8233480;28;19910;-48
2021/10/29 20:52:45;;;;;;;;;;;19.60;41.10;;;;;;8233352;28;19988;-49
2021/10/29 20:56:46;;;;;;;;;;;19.60;41.10;;;;;;8232729;28;20402;-49
2021/10/29 21:00:47;;;;;;;;;;;19.60;41.00;;;;;;8233441;28;20017;-49
2021/10/29 21:04:49;;;;;;;;;;;19.50;41.00;;;;;;8233570;28;20000;-50
2021/10/29 21:08:49;;;;;;;;;;;19.50;41.10;;;;;;8232823;28;20327;-50
2021/10/29 21:12:49;;;;;;;;;;;19.50;41.10;;;;;;8233166;28;19968;-48
2021/10/29 21:16:50;;;;;;;;;;;19.50;41.10;;;;;;8233027;28;19921;-49
2021/10/29 21:20:51;;;;;;;;;;;19.50;41.20;;;;;;8235671;28;19929;-49
2021/10/29 21:24:51;;;;;;;;;;;19.50;41.20;;;;;;8239362;28;19917;-50
2021/10/29 21:28:52;;;;;;;;;;;19.50;41.20;;;;;;8239316;28;19917;-49
2021/10/29 21:32:53;;;;;;;;;;;19.40;41.10;;;;;;8238494;28;20033;-49
2021/10/29 21:36:54;;;;;;;;;;;19.40;41.20;;;;;;8238655;28;20362;-50
2021/10/29 21:40:54;;;;;;;;;;;19.40;41.20;;;;;;8238763;28;19921;-49
2021/10/29 21:44:55;;;;;;;;;;;19.40;41.20;;;;;;8238160;28;19957;-48
2021/10/29 21:48:55;;;;;;;;;;;19.30;41.20;;;;;;8238513;28;19914;-50
2021/10/29 21:52:56;;;;;;;;;;;19.30;41.20;;;;;;8238338;28;20377;-49
2021/10/29 21:56:57;;;;;;;;;;;19.30;41.20;;;;;;8237835;28;20005;-48
2021/10/29 22:00:57;;;;;;;;;;;19.30;41.20;;;;;;8237434;28;20398;-48
2021/10/29 22:04:58;;;;;;;;;;;19.30;41.20;;;;;;8238112;28;20367;-49
2021/10/29 22:08:58;;;;;;;;;;;19.20;41.20;;;;;;8236240;28;19918;-48
2021/10/29 22:12:59;;;;;;;;;;;19.20;41.20;;;;;;8237918;28;19921;-48
2021/10/29 22:16:59;;;;;;;;;;;19.20;41.20;;;;;;8237446;28;19914;-48
2021/10/29 22:21:00;;;;;;;;;;;19.20;41.20;;;;;;8237031;28;20301;-49
2021/10/29 22:25:00;;;;;;;;;;;19.20;41.10;;;;;;8237846;28;20359;-48
2021/10/29 22:29:02;;;;;;;;;;;19.10;41.10;;;;;;8237127;28;20391;-48
2021/10/29 22:33:02;;;;;;;;;;;19.10;41.10;;;;;;8236415;28;19914;-49
2021/10/29 22:37:03;;;;;;;;;;;19.10;41.10;;;;;;8236839;28;19990;-48
2021/10/29 22:41:03;;;;;;;;;;;19.10;41.10;;;;;;8236911;28;19918;-48
2021/10/29 22:45:05;;;;;;;;;;;19.10;41.10;;;;;;8236374;28;19910;-49
2021/10/29 22:49:06;;;;;;;;;;;19.10;41.10;;;;;;8236607;28;19914;-48
2021/10/29 22:53:06;;;;;;;;;;;19.10;41.10;;;;;;8236511;28;19929;-49
2021/10/29 22:57:07;;;;;;;;;;;19.10;41.10;;;;;;8235709;28;20276;-50
2021/10/29 23:01:08;;;;;;;;;;;19.00;41.00;;;;;;8236511;28;19918;-49
2021/10/29 23:05:13;;;;;;;;;;;19.00;41.00;;;;;;8236423;28;19950;-49
2021/10/29 23:09:13;;;;;;;;;;;19.00;41.10;;;;;;8236054;28;19914;-49
2021/10/29 23:13:13;;;;;;;;;;;19.00;41.00;;;;;;8235688;28;19913;-48
2021/10/29 23:17:14;;;;;;;;;;;19.00;41.10;;;;;;8235170;28;19968;-50
2021/10/29 23:21:14;;;;;;;;;;;19.00;41.00;;;;;;8235677;28;19914;-47
2021/10/29 23:25:15;;;;;;;;;;;19.00;41.00;;;;;;8235664;28;19917;-48
2021/10/29 23:29:16;;;;;;;;;;;19.00;41.00;;;;;;8234959;28;19914;-48
2021/10/29 23:33:17;;;;;;;;;;;19.00;41.00;;;;;;8235191;28;19921;-48
2021/10/29 23:37:17;;;;;;;;;;;18.90;41.00;;;;;;8234996;28;19961;-49
2021/10/29 23:41:17;;;;;;;;;;;18.90;41.00;;;;;;8234458;28;20395;-49
2021/10/29 23:45:18;;;;;;;;;;;19.00;41.00;;;;;;8234482;28;19984;-48
2021/10/29 23:49:18;;;;;;;;;;;18.90;41.00;;;;;;8234809;28;19965;-48
2021/10/29 23:53:28;;;;;;;;;;;18.90;41.00;;;;;;8234258;28;19924;-49
2021/10/29 23:57:29;;;;;;;;;;;18.90;41.00;;;;;;8238935;28;19929;-49
